METAR Data
IDs: Format: Raw Decoded Include TAF

Data at: 1509 UTC 27 Nov 2021

ETHS 271420Z AUTO 17003KT 5000 // ////// 03/03 Q0990 ///